Time;durP1;ratioP1;P1;durP2;ratioP2;P2;SDS_P1;SDS_P2;PMS_P1;PMS_P2;Temp;Humidity;BMP_temperature;BMP_pressure;BME280_temperature;BME280_humidity;BME280_pressure;Samples;Min_cycle;Max_cycle;Signal;HPM_P1;HPM_P2
2022/04/09 00:02:23;;;;;;;5.90;5.27;;;;;;;;;;5072352;28;20453;-50
2022/04/09 00:04:49;;;;;;;5.30;4.90;;;;;;;;;;5073664;28;20824;-52
2022/04/09 00:07:15;;;;;;;7.03;5.90;;;;;;;;;;5073818;28;20858;-48
2022/04/09 00:09:41;;;;;;;5.77;5.37;;;;;;;;;;5073555;28;20419;-53
2022/04/09 00:12:08;;;;;;;6.17;5.73;;;;;;;;;;5073715;28;20940;-54
2022/04/09 00:14:34;;;;;;;8.00;5.90;;;;;;;;;;5073526;28;20772;-51
2022/04/09 00:17:01;;;;;;;5.90;5.40;;;;;;;;;;5073382;28;20423;-48
2022/04/09 00:19:27;;;;;;;5.93;5.43;;;;;;;;;;5072677;28;20476;-51
2022/04/09 00:21:53;;;;;;;5.53;5.13;;;;;;;;;;5073190;28;20419;-56
2022/04/09 00:24:19;;;;;;;7.20;6.10;;;;;;;;;;5073152;28;20482;-53
2022/04/09 00:26:45;;;;;;;6.00;5.50;;;;;;;;;;5073366;28;20398;-50
2022/04/09 00:29:11;;;;;;;6.10;5.50;;;;;;;;;;5073155;28;20437;-51
2022/04/09 00:31:37;;;;;;;6.03;5.60;;;;;;;;;;5073131;28;20407;-50
2022/04/09 00:34:05;;;;;;;8.07;5.60;;;;;;;;;;5071742;28;20866;-54
2022/04/09 00:36:31;;;;;;;5.70;5.30;;;;;;;;;;5073087;28;20407;-48
2022/04/09 00:38:57;;;;;;;6.90;6.00;;;;;;;;;;5072996;28;20419;-53
2022/04/09 00:41:23;;;;;;;6.53;5.93;;;;;;;;;;5072938;28;20395;-50
2022/04/09 00:43:49;;;;;;;5.87;5.37;;;;;;;;;;5072785;28;20406;-51
2022/04/09 00:46:15;;;;;;;6.40;5.77;;;;;;;;;;5073188;28;20411;-52
2022/04/09 00:48:43;;;;;;;6.00;5.60;;;;;;;;;;5072950;28;20399;-52
2022/04/09 00:51:09;;;;;;;6.40;5.90;;;;;;;;;;5072819;28;20414;-51
2022/04/09 00:53:35;;;;;;;5.93;5.53;;;;;;;;;;5072809;28;20407;-55
2022/04/09 00:56:20;;;;;;;6.93;6.23;;;;;;;;;;5072895;28;20403;-50
2022/04/09 00:58:57;;;;;;;9.17;6.80;;;;;;;;;;5072988;28;20395;-52
2022/04/09 01:01:24;;;;;;;7.60;6.90;;;;;;;;;;5072808;28;20483;-51
2022/04/09 01:03:51;;;;;;;8.00;7.30;;;;;;;;;;5071395;28;20472;-58
2022/04/09 01:06:17;;;;;;;8.37;7.57;;;;;;;;;;5072843;28;20415;-54
2022/04/09 01:08:43;;;;;;;8.23;7.53;;;;;;;;;;5072751;28;20407;-58
2022/04/09 01:11:11;;;;;;;9.43;7.90;;;;;;;;;;5071339;28;20914;-50
2022/04/09 01:13:37;;;;;;;8.23;6.60;;;;;;;;;;5072630;28;20755;-50
2022/04/09 01:16:04;;;;;;;8.60;7.70;;;;;;;;;;5072628;28;20904;-52
2022/04/09 01:18:33;;;;;;;8.37;6.97;;;;;;;;;;5072602;28;20418;-51
2022/04/09 01:21:03;;;;;;;9.07;7.70;;;;;;;;;;5072323;28;20505;-50
2022/04/09 01:23:29;;;;;;;7.10;6.23;;;;;;;;;;5072642;28;20464;-51
2022/04/09 01:25:56;;;;;;;9.00;6.97;;;;;;;;;;5071118;28;20978;-48
2022/04/09 01:28:22;;;;;;;8.77;7.97;;;;;;;;;;5071269;28;20422;-48
2022/04/09 01:30:48;;;;;;;7.87;6.57;;;;;;;;;;5072384;28;20514;-50
2022/04/09 01:33:15;;;;;;;10.07;8.40;;;;;;;;;;5076049;28;20411;-50
2022/04/09 01:35:41;;;;;;;9.93;8.40;;;;;;;;;;5076553;28;20427;-56
2022/04/09 01:38:07;;;;;;;10.57;7.83;;;;;;;;;;5076518;28;20402;-51
2022/04/09 01:40:34;;;;;;;11.70;8.70;;;;;;;;;;5076578;28;20901;-51
2022/04/09 01:43:00;;;;;;;13.03;10.43;;;;;;;;;;5076364;28;20407;-50
2022/04/09 01:45:27;;;;;;;12.17;9.43;;;;;;;;;;5076353;28;20532;-52
2022/04/09 01:47:54;;;;;;;12.20;9.27;;;;;;;;;;5076184;28;20501;-51
2022/04/09 01:50:21;;;;;;;12.33;9.87;;;;;;;;;;5074793;28;20407;-51
2022/04/09 01:52:47;;;;;;;12.80;8.93;;;;;;;;;;5076330;28;20414;-51
2022/04/09 01:55:13;;;;;;;10.97;9.47;;;;;;;;;;5076169;28;20411;-49
2022/04/09 01:57:39;;;;;;;13.03;10.20;;;;;;;;;;5074762;28;20422;-49
2022/04/09 02:00:07;;;;;;;13.13;9.37;;;;;;;;;;5076032;28;20414;-50
2022/04/09 02:02:33;;;;;;;12.83;9.03;;;;;;;;;;5075939;28;20403;-50
2022/04/09 02:04:59;;;;;;;10.57;7.70;;;;;;;;;;5075864;28;20485;-51
2022/04/09 02:07:27;;;;;;;13.27;8.77;;;;;;;;;;5074575;28;20419;-52
2022/04/09 02:09:53;;;;;;;14.33;9.27;;;;;;;;;;5075830;28;20419;-49
2022/04/09 02:12:19;;;;;;;14.70;8.50;;;;;;;;;;5075774;28;20441;-50
2022/04/09 02:14:45;;;;;;;7.47;6.63;;;;;;;;;;5075935;28;20410;-49
2022/04/09 02:17:11;;;;;;;15.57;8.20;;;;;;;;;;5075620;28;20406;-51
2022/04/09 02:19:38;;;;;;;11.70;8.50;;;;;;;;;;5074225;28;20481;-57
2022/04/09 02:22:04;;;;;;;10.40;7.47;;;;;;;;;;5074357;28;20817;-53
2022/04/09 02:24:31;;;;;;;15.83;8.40;;;;;;;;;;5075483;28;20474;-50
2022/04/09 02:26:57;;;;;;;9.60;6.83;;;;;;;;;;5075568;28;20724;-52
2022/04/09 02:29:23;;;;;;;17.03;10.57;;;;;;;;;;5075438;28;20898;-49
2022/04/09 02:31:49;;;;;;;17.77;10.30;;;;;;;;;;5073985;28;20583;-51
2022/04/09 02:34:18;;;;;;;12.10;8.00;;;;;;;;;;5075450;28;20468;-50
2022/04/09 02:36:44;;;;;;;8.17;5.90;;;;;;;;;;5075474;28;20406;-50
2022/04/09 02:39:11;;;;;;;12.80;9.40;;;;;;;;;;5074320;28;20915;-49
2022/04/09 02:41:37;;;;;;;35.70;19.30;;;;;;;;;;5075204;28;20407;-49
2022/04/09 02:44:03;;;;;;;11.63;8.27;;;;;;;;;;5074478;28;20458;-49
2022/04/09 02:46:29;;;;;;;7.40;6.70;;;;;;;;;;5075187;28;20509;-49
2022/04/09 02:48:55;;;;;;;15.77;7.83;;;;;;;;;;5075119;28;20403;-48
2022/04/09 02:51:21;;;;;;;13.20;7.90;;;;;;;;;;5073781;28;20431;-49
2022/04/09 02:53:47;;;;;;;7.93;7.13;;;;;;;;;;5074143;28;20454;-50
2022/04/09 02:56:13;;;;;;;12.70;8.00;;;;;;;;;;5074931;28;20422;-53
2022/04/09 02:58:39;;;;;;;11.03;6.50;;;;;;;;;;5073655;28;20411;-51
2022/04/09 03:01:06;;;;;;;8.67;7.47;;;;;;;;;;5074888;28;20438;-51
2022/04/09 03:03:32;;;;;;;9.20;7.03;;;;;;;;;;5074912;28;20406;-49
2022/04/09 03:05:58;;;;;;;8.00;7.20;;;;;;;;;;5073364;28;20492;-52
2022/04/09 03:08:24;;;;;;;7.87;6.33;;;;;;;;;;5074826;28;20399;-50
2022/04/09 03:10:50;;;;;;;9.57;6.30;;;;;;;;;;5074838;28;20768;-49
2022/04/09 03:13:16;;;;;;;8.63;5.80;;;;;;;;;;5074922;28;20418;-48
2022/04/09 03:15:42;;;;;;;11.00;7.10;;;;;;;;;;5074751;28;20883;-49
2022/04/09 03:18:10;;;;;;;6.80;6.10;;;;;;;;;;5074561;28;20395;-49
2022/04/09 03:20:36;;;;;;;14.20;6.67;;;;;;;;;;5074360;28;20443;-50
2022/04/09 03:23:02;;;;;;;6.10;5.23;;;;;;;;;;5074425;28;20407;-49
2022/04/09 03:25:29;;;;;;;12.27;6.53;;;;;;;;;;5074305;28;20470;-48
2022/04/09 03:27:58;;;;;;;19.63;6.37;;;;;;;;;;5074324;28;20423;-49
2022/04/09 03:30:24;;;;;;;7.13;6.23;;;;;;;;;;5074189;28;20882;-49
2022/04/09 03:32:50;;;;;;;10.80;6.70;;;;;;;;;;5072996;28;20434;-47
2022/04/09 03:35:16;;;;;;;8.97;6.90;;;;;;;;;;5074232;28;20759;-49
2022/04/09 03:37:42;;;;;;;9.70;6.30;;;;;;;;;;5074204;28;20415;-47
2022/04/09 03:40:09;;;;;;;9.23;6.10;;;;;;;;;;5072732;28;20419;-57
2022/04/09 03:42:35;;;;;;;11.47;5.90;;;;;;;;;;5074098;28;20417;-52
2022/04/09 03:45:01;;;;;;;9.50;5.57;;;;;;;;;;5072792;28;20497;-53
2022/04/09 03:47:27;;;;;;;7.97;6.13;;;;;;;;;;5072251;28;20410;-56
2022/04/09 03:49:53;;;;;;;11.13;5.00;;;;;;;;;;5073614;28;20450;-54
2022/04/09 03:52:22;;;;;;;6.10;5.00;;;;;;;;;;5073531;28;20410;-51
2022/04/09 03:54:48;;;;;;;8.77;5.53;;;;;;;;;;5072233;28;20918;-49
2022/04/09 03:57:14;;;;;;;8.17;6.17;;;;;;;;;;5072652;28;20514;-53
2022/04/09 03:59:40;;;;;;;6.63;4.57;;;;;;;;;;5073538;28;20889;-52
2022/04/09 04:02:06;;;;;;;15.43;5.73;;;;;;;;;;5073466;28;20937;-52
2022/04/09 04:04:33;;;;;;;5.43;4.60;;;;;;;;;;5073414;28;21006;-49
2022/04/09 04:07:03;;;;;;;7.87;5.23;;;;;;;;;;5073474;28;20736;-55
2022/04/09 04:09:36;;;;;;;8.40;5.27;;;;;;;;;;5073511;28;20914;-51
2022/04/09 04:12:02;;;;;;;8.63;5.20;;;;;;;;;;5073472;28;20532;-54
2022/04/09 04:14:28;;;;;;;5.70;4.50;;;;;;;;;;5072109;28;21108;-56
2022/04/09 04:16:54;;;;;;;5.17;4.50;;;;;;;;;;5073373;28;20411;-54
2022/04/09 04:19:20;;;;;;;4.20;3.97;;;;;;;;;;5073112;28;20512;-54
2022/04/09 04:21:46;;;;;;;6.00;5.50;;;;;;;;;;5073358;28;20421;-52
2022/04/09 04:24:12;;;;;;;6.37;4.33;;;;;;;;;;5073163;28;20865;-48
2022/04/09 04:26:38;;;;;;;5.07;4.20;;;;;;;;;;5073063;28;20444;-52
2022/04/09 04:29:04;;;;;;;7.93;4.80;;;;;;;;;;5071733;28;20950;-59
2022/04/09 04:31:30;;;;;;;7.53;4.50;;;;;;;;;;5073029;28;20446;-51
2022/04/09 04:33:56;;;;;;;4.30;3.97;;;;;;;;;;5072955;28;20436;-50
2022/04/09 04:36:24;;;;;;;11.80;5.07;;;;;;;;;;5071607;28;20419;-52
2022/04/09 04:38:50;;;;;;;5.73;4.37;;;;;;;;;;5072984;28;20960;-53
2022/04/09 04:41:16;;;;;;;4.67;4.27;;;;;;;;;;5071726;28;20426;-49
2022/04/09 04:43:44;;;;;;;3.83;3.63;;;;;;;;;;5071537;28;20403;-55
2022/04/09 04:46:10;;;;;;;6.80;3.90;;;;;;;;;;5072838;28;20415;-57
2022/04/09 04:48:36;;;;;;;7.03;4.20;;;;;;;;;;5070356;28;20455;-51
2022/04/09 04:51:02;;;;;;;8.00;4.20;;;;;;;;;;5052652;28;20753;-52
2022/04/09 04:53:28;;;;;;;4.23;3.93;;;;;;;;;;5052708;28;20895;-50
2022/04/09 04:55:54;;;;;;;4.83;3.80;;;;;;;;;;5052742;28;20538;-51
2022/04/09 04:58:21;;;;;;;8.07;4.83;;;;;;;;;;5052561;28;20404;-53
2022/04/09 05:00:50;;;;;;;5.47;4.67;;;;;;;;;;5052971;28;20870;-52
2022/04/09 05:03:16;;;;;;;5.57;5.03;;;;;;;;;;5052758;28;20923;-53
2022/04/09 05:05:42;;;;;;;10.50;6.03;;;;;;;;;;5052335;28;20839;-52
2022/04/09 05:08:11;;;;;;;8.17;5.50;;;;;;;;;;5052677;28;20407;-52
2022/04/09 05:10:37;;;;;;;5.93;5.50;;;;;;;;;;5052500;28;20407;-52
2022/04/09 05:13:03;;;;;;;11.77;6.73;;;;;;;;;;5052231;28;20400;-53
2022/04/09 05:15:29;;;;;;;12.07;7.90;;;;;;;;;;5052526;28;20415;-47
2022/04/09 05:17:55;;;;;;;13.17;8.40;;;;;;;;;;5052577;28;20400;-52
2022/04/09 05:20:22;;;;;;;13.83;7.77;;;;;;;;;;5052324;28;20550;-51
2022/04/09 05:22:48;;;;;;;10.73;8.13;;;;;;;;;;5052589;28;20395;-50
2022/04/09 05:25:16;;;;;;;10.70;7.90;;;;;;;;;;5052569;28;20554;-54
2022/04/09 05:27:43;;;;;;;11.53;8.60;;;;;;;;;;5052232;28;20494;-52
2022/04/09 05:30:09;;;;;;;21.17;8.47;;;;;;;;;;5052263;28;20420;-53
2022/04/09 05:32:36;;;;;;;9.40;7.07;;;;;;;;;;5051100;28;20435;-49
2022/04/09 05:35:02;;;;;;;11.37;8.47;;;;;;;;;;5052189;28;20816;-52
2022/04/09 05:37:31;;;;;;;14.73;8.33;;;;;;;;;;5052260;28;20438;-51
2022/04/09 05:39:58;;;;;;;10.13;8.07;;;;;;;;;;5052259;28;20422;-51
2022/04/09 05:42:25;;;;;;;15.00;8.53;;;;;;;;;;5052185;28;20487;-51
2022/04/09 05:44:52;;;;;;;9.83;8.00;;;;;;;;;;5052348;28;20466;-51
2022/04/09 05:47:18;;;;;;;9.57;7.83;;;;;;;;;;5052377;28;20757;-52
2022/04/09 05:49:44;;;;;;;11.00;8.43;;;;;;;;;;5052477;28;20411;-50
2022/04/09 05:52:10;;;;;;;11.97;7.97;;;;;;;;;;5052291;28;20412;-51
2022/04/09 05:54:36;;;;;;;19.07;7.70;;;;;;;;;;5050985;28;20416;-51
2022/04/09 05:57:02;;;;;;;11.00;9.00;;;;;;;;;;5052145;28;20450;-49
2022/04/09 05:59:30;;;;;;;8.40;7.60;;;;;;;;;;5052052;28;20408;-51
2022/04/09 06:01:56;;;;;;;11.03;8.63;;;;;;;;;;5052160;28;20939;-49
2022/04/09 06:04:22;;;;;;;12.93;8.10;;;;;;;;;;5051765;28;20451;-49
2022/04/09 06:06:49;;;;;;;11.23;7.80;;;;;;;;;;5051869;28;20420;-49
2022/04/09 06:09:15;;;;;;;8.80;7.90;;;;;;;;;;5052074;28;20400;-58
2022/04/09 06:11:42;;;;;;;19.67;7.80;;;;;;;;;;5051884;28;20408;-53
2022/04/09 06:14:08;;;;;;;15.03;7.40;;;;;;;;;;5051825;28;20457;-50
2022/04/09 06:16:38;;;;;;;12.10;8.07;;;;;;;;;;5051931;28;20439;-48
2022/04/09 06:19:05;;;;;;;19.40;6.03;;;;;;;;;;5054389;28;20406;-48
2022/04/09 06:21:35;;;;;;;8.83;6.90;;;;;;;;;;5055412;28;20420;-49
2022/04/09 06:24:01;;;;;;;10.83;7.87;;;;;;;;;;5055490;28;20430;-50
2022/04/09 06:26:27;;;;;;;10.33;7.70;;;;;;;;;;5055440;28;20741;-49
2022/04/09 06:28:54;;;;;;;6.90;6.17;;;;;;;;;;5054126;28;20415;-51
2022/04/09 06:31:20;;;;;;;9.17;5.30;;;;;;;;;;5055426;28;20493;-51
2022/04/09 06:33:49;;;;;;;6.80;5.53;;;;;;;;;;5055546;28;20396;-51
2022/04/09 06:36:18;;;;;;;8.10;4.57;;;;;;;;;;5053892;28;20446;-50
2022/04/09 06:38:44;;;;;;;9.97;6.63;;;;;;;;;;5055408;28;20432;-50
2022/04/09 06:41:10;;;;;;;6.23;4.93;;;;;;;;;;5054683;28;20918;-54
2022/04/09 06:43:36;;;;;;;6.40;5.90;;;;;;;;;;5054295;28;20808;-49
2022/04/09 06:46:02;;;;;;;9.57;5.87;;;;;;;;;;5055227;28;20470;-52
2022/04/09 06:48:28;;;;;;;20.77;6.03;;;;;;;;;;5055112;28;20952;-52
2022/04/09 06:50:57;;;;;;;9.27;5.93;;;;;;;;;;5055136;28;20509;-49
2022/04/09 06:53:23;;;;;;;7.90;5.50;;;;;;;;;;5055142;28;20466;-50
2022/04/09 06:55:49;;;;;;;10.93;5.13;;;;;;;;;;5055071;28;20788;-51
2022/04/09 06:58:15;;;;;;;15.07;5.10;;;;;;;;;;5055279;28;20752;-52
2022/04/09 07:00:42;;;;;;;3.30;3.10;;;;;;;;;;5053719;28;20426;-48
2022/04/09 07:03:10;;;;;;;4.80;3.80;;;;;;;;;;5054764;28;20459;-49
2022/04/09 07:05:36;;;;;;;7.00;4.90;;;;;;;;;;5054694;28;20463;-49
2022/04/09 07:08:03;;;;;;;4.43;4.13;;;;;;;;;;5054228;28;20884;-50
2022/04/09 07:10:29;;;;;;;6.37;4.83;;;;;;;;;;5053191;28;20399;-50
2022/04/09 07:12:55;;;;;;;7.87;5.40;;;;;;;;;;5053619;28;20400;-51
2022/04/09 07:15:21;;;;;;;9.90;5.37;;;;;;;;;;5053123;28;20430;-50
2022/04/09 07:17:47;;;;;;;13.73;4.43;;;;;;;;;;5052673;28;20407;-50
2022/04/09 07:20:16;;;;;;;4.70;4.10;;;;;;;;;;5053587;28;20551;-49
2022/04/09 07:22:43;;;;;;;4.00;3.80;;;;;;;;;;5054415;28;20774;-50
2022/04/09 07:25:10;;;;;;;4.97;4.57;;;;;;;;;;5054366;28;20979;-50
2022/04/09 07:27:37;;;;;;;4.33;4.03;;;;;;;;;;5054629;28;20851;-50
2022/04/09 07:30:07;;;;;;;5.37;3.90;;;;;;;;;;5052992;28;20514;-50
2022/04/09 07:32:33;;;;;;;4.23;3.93;;;;;;;;;;5052893;28;20424;-49
2022/04/09 07:34:59;;;;;;;4.90;4.37;;;;;;;;;;5054092;28;20403;-52
2022/04/09 07:37:25;;;;;;;5.07;4.40;;;;;;;;;;5053124;28;20407;-52
2022/04/09 07:39:52;;;;;;;11.13;4.30;;;;;;;;;;5054159;28;20411;-50
2022/04/09 07:42:18;;;;;;;4.70;4.00;;;;;;;;;;5054164;28;20813;-49
2022/04/09 07:44:44;;;;;;;4.60;4.30;;;;;;;;;;5053957;28;20447;-49
2022/04/09 07:47:10;;;;;;;10.23;4.80;;;;;;;;;;5053895;28;20892;-51
2022/04/09 07:49:36;;;;;;;6.23;4.47;;;;;;;;;;5054064;28;20756;-51
2022/04/09 07:52:02;;;;;;;4.00;3.70;;;;;;;;;;5053931;28;20400;-48
2022/04/09 07:54:29;;;;;;;6.23;3.70;;;;;;;;;;5053853;28;20400;-49
2022/04/09 07:56:56;;;;;;;3.50;3.30;;;;;;;;;;5053746;28;20403;-52
2022/04/09 07:59:22;;;;;;;5.27;4.60;;;;;;;;;;5053821;28;20407;-51
2022/04/09 08:01:48;;;;;;;9.80;3.80;;;;;;;;;;5053928;28;20414;-54
2022/04/09 08:04:14;;;;;;;4.73;4.23;;;;;;;;;;5053692;28;20547;-51
2022/04/09 08:06:40;;;;;;;8.23;3.80;;;;;;;;;;5053486;28;20395;-51
2022/04/09 08:09:06;;;;;;;8.20;4.53;;;;;;;;;;5053549;28;20458;-51
2022/04/09 08:11:32;;;;;;;4.30;3.90;;;;;;;;;;5053237;28;20400;-51
2022/04/09 08:13:58;;;;;;;4.43;4.10;;;;;;;;;;5051859;28;20968;-50
2022/04/09 08:16:25;;;;;;;4.70;4.40;;;;;;;;;;5053125;28;20444;-50
2022/04/09 08:18:51;;;;;;;3.60;3.40;;;;;;;;;;5053187;28;20415;-50
2022/04/09 08:21:18;;;;;;;4.07;3.80;;;;;;;;;;5051826;28;20562;-50
2022/04/09 08:23:44;;;;;;;3.30;3.20;;;;;;;;;;5052179;28;20420;-49
2022/04/09 08:26:10;;;;;;;3.83;3.50;;;;;;;;;;5053200;28;20502;-53
2022/04/09 08:28:37;;;;;;;4.70;3.73;;;;;;;;;;5052243;28;20857;-52
2022/04/09 08:31:07;;;;;;;4.13;3.83;;;;;;;;;;5053251;28;20439;-50
2022/04/09 08:33:34;;;;;;;3.73;3.53;;;;;;;;;;5051552;28;20477;-50
2022/04/09 08:36:03;;;;;;;4.13;3.57;;;;;;;;;;5053039;28;20403;-49
2022/04/09 08:38:30;;;;;;;3.47;3.13;;;;;;;;;;5051658;28;20428;-51
2022/04/09 08:40:56;;;;;;;3.80;3.60;;;;;;;;;;5052428;28;20926;-50
2022/04/09 08:43:22;;;;;;;4.40;4.10;;;;;;;;;;5052838;28;20962;-51
2022/04/09 08:45:49;;;;;;;3.80;3.53;;;;;;;;;;5053000;28;20477;-49
2022/04/09 08:48:17;;;;;;;3.97;3.77;;;;;;;;;;5053139;28;20404;-52
2022/04/09 08:50:44;;;;;;;3.63;3.40;;;;;;;;;;5053110;28;20754;-52
2022/04/09 08:53:10;;;;;;;3.67;3.43;;;;;;;;;;5052824;28;20411;-50
2022/04/09 08:55:37;;;;;;;6.30;4.30;;;;;;;;;;5052788;28;20515;-52
2022/04/09 08:58:04;;;;;;;3.60;3.40;;;;;;;;;;5052710;28;20403;-50
2022/04/09 09:00:30;;;;;;;4.60;3.80;;;;;;;;;;5052635;28;20506;-50
2022/04/09 09:02:58;;;;;;;3.70;3.60;;;;;;;;;;5052694;28;20418;-50
2022/04/09 09:05:28;;;;;;;4.20;3.90;;;;;;;;;;5052577;28;20620;-48
2022/04/09 09:07:57;;;;;;;6.63;3.37;;;;;;;;;;5052625;28;20764;-50
2022/04/09 09:10:23;;;;;;;3.27;3.17;;;;;;;;;;5052504;28;20438;-52
2022/04/09 09:13:05;;;;;;;4.07;3.87;;;;;;;;;;5052554;28;20410;-48
2022/04/09 09:15:31;;;;;;;6.30;3.70;;;;;;;;;;5052331;28;20422;-51
2022/04/09 09:18:00;;;;;;;4.77;4.00;;;;;;;;;;5052362;28;20411;-50
2022/04/09 09:20:26;;;;;;;3.90;3.70;;;;;;;;;;5050948;28;20480;-55
2022/04/09 09:22:52;;;;;;;5.07;4.10;;;;;;;;;;5052259;28;20507;-51
2022/04/09 09:25:19;;;;;;;8.70;3.90;;;;;;;;;;5052497;28;20466;-51
2022/04/09 09:27:45;;;;;;;4.20;3.97;;;;;;;;;;5052643;28;20405;-51
2022/04/09 09:30:14;;;;;;;4.30;3.90;;;;;;;;;;5052496;28;20411;-51
2022/04/09 09:32:44;;;;;;;4.97;3.77;;;;;;;;;;5052598;28;20852;-50
2022/04/09 09:35:10;;;;;;;5.03;4.53;;;;;;;;;;5052372;28;20803;-50
2022/04/09 09:37:37;;;;;;;4.87;3.80;;;;;;;;;;5052471;28;20920;-53
2022/04/09 09:40:04;;;;;;;4.30;4.00;;;;;;;;;;5052235;28;20461;-52
2022/04/09 09:42:33;;;;;;;4.07;3.87;;;;;;;;;;5052201;28;20501;-48
2022/04/09 09:44:59;;;;;;;3.30;3.10;;;;;;;;;;5052026;28;20459;-50
2022/04/09 09:47:25;;;;;;;4.00;3.47;;;;;;;;;;5050942;28;20435;-49
2022/04/09 09:49:53;;;;;;;3.33;3.23;;;;;;;;;;5052138;28;20887;-50
2022/04/09 09:52:24;;;;;;;3.53;3.43;;;;;;;;;;5052388;28;20419;-51
2022/04/09 09:55:10;;;;;;;3.63;3.33;;;;;;;;;;5054903;28;20415;-53
2022/04/09 09:57:38;;;;;;;3.80;3.30;;;;;;;;;;5056113;28;20399;-51
2022/04/09 10:00:05;;;;;;;4.00;3.80;;;;;;;;;;5056124;28;20768;-54
2022/04/09 10:02:34;;;;;;;6.90;4.37;;;;;;;;;;5056070;28;20402;-49
2022/04/09 10:05:00;;;;;;;3.90;3.70;;;;;;;;;;5055839;28;20462;-54
2022/04/09 10:07:26;;;;;;;4.60;4.30;;;;;;;;;;5056020;28;20412;-52
2022/04/09 10:09:53;;;;;;;4.60;4.30;;;;;;;;;;5055786;28;20483;-48
2022/04/09 10:12:22;;;;;;;5.03;4.27;;;;;;;;;;5055761;28;20938;-49
2022/04/09 10:14:55;;;;;;;5.07;4.17;;;;;;;;;;5055774;28;20908;-56
2022/04/09 10:17:22;;;;;;;6.80;3.93;;;;;;;;;;5055634;28;20447;-50
2022/04/09 10:19:53;;;;;;;6.97;4.10;;;;;;;;;;5055705;28;20463;-50
2022/04/09 10:22:19;;;;;;;3.37;3.20;;;;;;;;;;5055487;28;20420;-49
2022/04/09 10:24:46;;;;;;;3.67;3.47;;;;;;;;;;5055550;28;20816;-51
2022/04/09 10:27:31;;;;;;;3.33;3.13;;;;;;;;;;5055620;28;20415;-50
2022/04/09 10:30:02;;;;;;;3.50;3.30;;;;;;;;;;5055486;28;20403;-51
2022/04/09 10:32:43;;;;;;;3.77;3.57;;;;;;;;;;5055455;28;20423;-52
2022/04/09 10:35:26;;;;;;;3.10;3.00;;;;;;;;;;5055153;28;20514;-54
2022/04/09 10:38:07;;;;;;;3.40;3.10;;;;;;;;;;5055390;28;20945;-49
2022/04/09 10:40:37;;;;;;;3.37;3.07;;;;;;;;;;5055109;28;20408;-51
2022/04/09 10:43:05;;;;;;;3.33;3.10;;;;;;;;;;5055071;28;20911;-54
2022/04/09 10:45:32;;;;;;;3.10;3.00;;;;;;;;;;5055167;28;20481;-52
2022/04/09 10:48:11;;;;;;;4.03;3.63;;;;;;;;;;5055279;28;20479;-49
2022/04/09 10:51:02;;;;;;;3.63;3.17;;;;;;;;;;5055049;28;20396;-53
2022/04/09 10:53:30;;;;;;;3.40;3.20;;;;;;;;;;5053783;28;20513;-52
2022/04/09 10:56:15;;;;;;;3.67;3.47;;;;;;;;;;5054908;28;20410;-50
2022/04/09 10:59:00;;;;;;;3.63;3.37;;;;;;;;;;5054931;28;20411;-49
2022/04/09 11:01:47;;;;;;;3.87;3.67;;;;;;;;;;5054964;28;20764;-49
2022/04/09 11:04:34;;;;;;;3.87;3.67;;;;;;;;;;5054236;28;20417;-53
2022/04/09 11:07:03;;;;;;;3.43;3.13;;;;;;;;;;5053519;28;20426;-52
2022/04/09 11:09:45;;;;;;;3.63;3.53;;;;;;;;;;5054829;28;20450;-51
2022/04/09 11:12:12;;;;;;;3.50;3.30;;;;;;;;;;5054689;28;20450;-55
2022/04/09 11:14:47;;;;;;;4.00;3.80;;;;;;;;;;5054437;28;20473;-51
2022/04/09 11:17:23;;;;;;;6.83;3.10;;;;;;;;;;5054858;28;20502;-51
2022/04/09 11:19:49;;;;;;;2.93;2.83;;;;;;;;;;5054390;28;20576;-50
2022/04/09 11:22:15;;;;;;;3.03;2.93;;;;;;;;;;5054818;28;20411;-49
2022/04/09 11:24:42;;;;;;;3.57;3.47;;;;;;;;;;5054469;28;20811;-50
2022/04/09 11:27:10;;;;;;;3.20;3.10;;;;;;;;;;5053328;28;20832;-50
2022/04/09 11:29:37;;;;;;;3.50;3.20;;;;;;;;;;5053061;28;20423;-51
2022/04/09 11:32:03;;;;;;;3.67;3.47;;;;;;;;;;5054270;28;20415;-52
2022/04/09 11:34:46;;;;;;;3.73;3.50;;;;;;;;;;5054136;28;20408;-53
2022/04/09 11:37:12;;;;;;;4.97;3.20;;;;;;;;;;5054214;28;20412;-49
2022/04/09 11:39:41;;;;;;;3.57;3.47;;;;;;;;;;5052567;28;21456;-50
2022/04/09 11:42:07;;;;;;;3.40;3.20;;;;;;;;;;5052717;28;20438;-51
2022/04/09 11:44:35;;;;;;;3.10;3.00;;;;;;;;;;5052575;28;20447;-49
2022/04/09 11:47:11;;;;;;;3.10;3.00;;;;;;;;;;5054069;28;20529;-49
2022/04/09 11:49:37;;;;;;;3.33;3.17;;;;;;;;;;5053842;28;20442;-52
2022/04/09 11:52:04;;;;;;;3.77;2.97;;;;;;;;;;5053987;28;20407;-50
2022/04/09 11:54:34;;;;;;;3.40;3.30;;;;;;;;;;5053854;28;20585;-51
2022/04/09 11:57:01;;;;;;;4.17;3.53;;;;;;;;;;5053930;28;20415;-52
2022/04/09 11:59:30;;;;;;;3.60;3.40;;;;;;;;;;5054029;28;20403;-49
2022/04/09 12:01:57;;;;;;;3.60;3.40;;;;;;;;;;5052651;28;20412;-50
2022/04/09 12:04:23;;;;;;;4.00;3.80;;;;;;;;;;5053742;28;20478;-51
2022/04/09 12:06:53;;;;;;;4.27;3.97;;;;;;;;;;5053751;28;20942;-51
2022/04/09 12:09:21;;;;;;;3.50;3.20;;;;;;;;;;5053636;28;20436;-51
2022/04/09 12:11:53;;;;;;;3.83;3.63;;;;;;;;;;5052887;28;20477;-53
2022/04/09 12:14:20;;;;;;;3.90;3.60;;;;;;;;;;5053473;28;20862;-53
2022/04/09 12:16:49;;;;;;;3.60;3.50;;;;;;;;;;5053191;28;20411;-50
2022/04/09 12:19:15;;;;;;;3.37;3.27;;;;;;;;;;5053521;28;20459;-48
2022/04/09 12:21:42;;;;;;;3.67;3.47;;;;;;;;;;5053414;28;20505;-49
2022/04/09 12:24:12;;;;;;;10.33;3.50;;;;;;;;;;5053224;28;20414;-49
2022/04/09 12:26:41;;;;;;;4.17;3.97;;;;;;;;;;5053390;28;20411;-51
2022/04/09 12:29:29;;;;;;;3.30;3.10;;;;;;;;;;5053405;28;20435;-51
2022/04/09 12:32:14;;;;;;;3.83;3.60;;;;;;;;;;5053130;28;20414;-50
2022/04/09 12:34:57;;;;;;;3.53;3.33;;;;;;;;;;5053172;28;20406;-49
2022/04/09 12:37:23;;;;;;;3.73;3.50;;;;;;;;;;5053129;28;20502;-51
2022/04/09 12:39:50;;;;;;;3.30;3.10;;;;;;;;;;5053063;28;20441;-50
2022/04/09 12:42:16;;;;;;;4.43;4.03;;;;;;;;;;5052157;28;20507;-49
2022/04/09 12:44:45;;;;;;;3.73;3.40;;;;;;;;;;5053079;28;20479;-50
2022/04/09 12:47:12;;;;;;;3.00;2.90;;;;;;;;;;5051603;28;20412;-50
2022/04/09 12:49:40;;;;;;;4.30;3.30;;;;;;;;;;5052939;28;20400;-49
2022/04/09 12:52:08;;;;;;;3.33;2.80;;;;;;;;;;5052877;28;20419;-50
2022/04/09 12:54:34;;;;;;;2.97;2.80;;;;;;;;;;5052750;28;20391;-52
2022/04/09 12:57:07;;;;;;;3.80;3.37;;;;;;;;;;5052925;28;20399;-49
2022/04/09 12:59:34;;;;;;;3.23;3.13;;;;;;;;;;5052664;28;20427;-50
2022/04/09 13:02:01;;;;;;;3.37;3.17;;;;;;;;;;5052819;28;20931;-50
2022/04/09 13:04:27;;;;;;;3.07;2.80;;;;;;;;;;5051544;28;20942;-51
2022/04/09 13:06:53;;;;;;;2.90;2.80;;;;;;;;;;5052749;28;20447;-50
2022/04/09 13:09:19;;;;;;;3.37;3.17;;;;;;;;;;5051465;28;20411;-50
2022/04/09 13:11:45;;;;;;;4.27;4.00;;;;;;;;;;5053035;28;20411;-53
2022/04/09 13:14:11;;;;;;;3.47;3.27;;;;;;;;;;5052574;28;20489;-49
2022/04/09 13:16:37;;;;;;;3.20;3.10;;;;;;;;;;5052448;28;20493;-51
2022/04/09 13:19:04;;;;;;;3.63;3.33;;;;;;;;;;5051068;28;20435;-49
2022/04/09 13:21:30;;;;;;;6.43;3.90;;;;;;;;;;5052337;28;20414;-52
2022/04/09 13:23:57;;;;;;;3.23;3.07;;;;;;;;;;5052351;28;20403;-50
2022/04/09 13:26:23;;;;;;;4.50;4.20;;;;;;;;;;5052892;28;20468;-50
2022/04/09 13:28:49;;;;;;;25.73;5.57;;;;;;;;;;5057784;28;20914;-50
2022/04/09 13:31:16;;;;;;;7.23;6.53;;;;;;;;;;5058079;28;20770;-56
2022/04/09 13:33:42;;;;;;;5.73;5.10;;;;;;;;;;5057721;28;20795;-53
2022/04/09 13:36:08;;;;;;;10.77;5.20;;;;;;;;;;5059083;28;20407;-49
2022/04/09 13:38:37;;;;;;;7.80;5.57;;;;;;;;;;5059094;28;21016;-49
2022/04/09 13:41:03;;;;;;;7.03;4.93;;;;;;;;;;5059002;28;20407;-53
2022/04/09 13:43:29;;;;;;;7.37;6.60;;;;;;;;;;5057598;28;20423;-56
2022/04/09 13:45:55;;;;;;;4.53;4.33;;;;;;;;;;5058860;28;20462;-51
2022/04/09 13:48:21;;;;;;;3.77;3.50;;;;;;;;;;5058818;28;20406;-50
2022/04/09 13:50:47;;;;;;;4.67;4.27;;;;;;;;;;5059010;28;20406;-51
2022/04/09 13:53:15;;;;;;;3.90;3.70;;;;;;;;;;5059186;28;20737;-49
2022/04/09 13:55:41;;;;;;;3.80;3.60;;;;;;;;;;5058905;28;20414;-49
2022/04/09 13:58:07;;;;;;;4.10;3.80;;;;;;;;;;5058844;28;20407;-49
2022/04/09 14:00:34;;;;;;;3.97;3.40;;;;;;;;;;5057435;28;20416;-53
2022/04/09 14:03:00;;;;;;;3.77;3.67;;;;;;;;;;5058890;28;20815;-51
2022/04/09 14:05:26;;;;;;;6.37;3.80;;;;;;;;;;5058719;28;20524;-53
2022/04/09 14:07:52;;;;;;;4.60;3.60;;;;;;;;;;5058756;28;20892;-52
2022/04/09 14:10:20;;;;;;;3.67;3.53;;;;;;;;;;5058976;28;20418;-50
2022/04/09 14:12:46;;;;;;;3.43;3.27;;;;;;;;;;5058263;28;20422;-49
2022/04/09 14:15:12;;;;;;;8.33;3.43;;;;;;;;;;5058784;28;20414;-49
2022/04/09 14:17:38;;;;;;;3.57;3.30;;;;;;;;;;5058595;28;20403;-50
2022/04/09 14:20:05;;;;;;;3.40;3.30;;;;;;;;;;5058477;28;20462;-52
2022/04/09 14:22:31;;;;;;;120.87;31.30;;;;;;;;;;5057147;28;20426;-53
2022/04/09 14:25:00;;;;;;;160.63;42.57;;;;;;;;;;5058396;28;20471;-56
2022/04/09 14:27:26;;;;;;;102.07;26.20;;;;;;;;;;5057136;28;20465;-51
2022/04/09 14:29:52;;;;;;;16.47;6.63;;;;;;;;;;5058516;28;20510;-49
2022/04/09 14:32:18;;;;;;;48.07;17.90;;;;;;;;;;5058678;28;20411;-48
2022/04/09 14:34:44;;;;;;;3.23;3.07;;;;;;;;;;5058548;28;20417;-50
2022/04/09 14:37:10;;;;;;;4.20;3.80;;;;;;;;;;5058484;28;20498;-50
2022/04/09 14:39:36;;;;;;;21.17;10.43;;;;;;;;;;5055126;28;20717;-51
2022/04/09 14:42:03;;;;;;;6.47;4.60;;;;;;;;;;5055338;28;20439;-50
2022/04/09 14:44:29;;;;;;;4.60;4.03;;;;;;;;;;5055263;28;20455;-49